sensor_id;sensor_type;location;lat;lon;timestamp;pressure;altitude;pressure_sealevel;temperature;humidity
53514;BME280;39768;54.148;12.174;2022-10-16T00:02:49;100792.06;;;17.31;100.00
53514;BME280;39768;54.148;12.174;2022-10-16T00:06:50;100807.03;;;17.14;100.00
53514;BME280;39768;54.148;12.174;2022-10-16T00:10:52;100813.75;;;17.24;100.00
53514;BME280;39768;54.148;12.174;2022-10-16T00:14:53;100815.16;;;17.35;100.00
53514;BME280;39768;54.148;12.174;2022-10-16T00:18:55;100810.72;;;17.34;100.00
53514;BME280;39768;54.148;12.174;2022-10-16T00:22:57;100816.38;;;17.26;100.00
53514;BME280;39768;54.148;12.174;2022-10-16T00:26:58;100829.41;;;17.13;100.00
53514;BME280;39768;54.148;12.174;2022-10-16T00:31:08;100825.00;;;17.12;100.00
53514;BME280;39768;54.148;12.174;2022-10-16T00:35:10;100828.78;;;17.07;100.00
53514;BME280;39768;54.148;12.174;2022-10-16T00:39:12;100837.53;;;17.12;100.00
53514;BME280;39768;54.148;12.174;2022-10-16T00:47:36;100836.44;;;16.94;100.00
53514;BME280;39768;54.148;12.174;2022-10-16T00:51:39;100852.66;;;16.91;100.00
53514;BME280;39768;54.148;12.174;2022-10-16T00:55:41;100847.41;;;16.88;100.00
53514;BME280;39768;54.148;12.174;2022-10-16T00:59:43;100860.97;;;17.07;100.00
53514;BME280;39768;54.148;12.174;2022-10-16T01:03:44;100848.56;;;17.04;100.00
53514;BME280;39768;54.148;12.174;2022-10-16T01:16:43;100863.25;;;16.71;100.00
53514;BME280;39768;54.148;12.174;2022-10-16T01:20:30;100857.38;;;16.84;100.00
53514;BME280;39768;54.148;12.174;2022-10-16T01:24:38;100864.69;;;16.79;100.00
53514;BME280;39768;54.148;12.174;2022-10-16T01:37:05;100882.31;;;16.86;100.00
53514;BME280;39768;54.148;12.174;2022-10-16T01:41:10;100884.88;;;16.89;100.00
53514;BME280;39768;54.148;12.174;2022-10-16T01:45:13;100894.75;;;16.89;100.00
53514;BME280;39768;54.148;12.174;2022-10-16T01:49:16;100894.47;;;16.72;100.00
53514;BME280;39768;54.148;12.174;2022-10-16T01:53:18;100883.31;;;16.59;100.00
53514;BME280;39768;54.148;12.174;2022-10-16T01:57:21;100883.81;;;16.70;100.00
53514;BME280;39768;54.148;12.174;2022-10-16T02:01:26;100888.72;;;16.57;100.00
53514;BME280;39768;54.148;12.174;2022-10-16T02:09:39;100900.94;;;16.66;100.00
53514;BME280;39768;54.148;12.174;2022-10-16T02:17:42;100900.56;;;16.50;100.00
53514;BME280;39768;54.148;12.174;2022-10-16T02:21:56;100904.50;;;16.40;100.00
53514;BME280;39768;54.148;12.174;2022-10-16T02:25:59;100904.41;;;16.43;100.00
53514;BME280;39768;54.148;12.174;2022-10-16T02:30:07;100903.84;;;16.34;100.00
53514;BME280;39768;54.148;12.174;2022-10-16T02:34:09;100903.84;;;16.34;100.00
53514;BME280;39768;54.148;12.174;2022-10-16T02:38:14;100897.59;;;16.33;100.00
53514;BME280;39768;54.148;12.174;2022-10-16T02:42:17;100909.03;;;16.38;100.00
53514;BME280;39768;54.148;12.174;2022-10-16T02:46:19;100913.81;;;16.30;100.00
53514;BME280;39768;54.148;12.174;2022-10-16T02:50:20;100906.66;;;16.31;100.00
53514;BME280;39768;54.148;12.174;2022-10-16T02:54:22;100904.28;;;16.21;100.00
53514;BME280;39768;54.148;12.174;2022-10-16T02:58:23;100909.03;;;16.13;100.00
53514;BME280;39768;54.148;12.174;2022-10-16T03:02:25;100910.81;;;16.13;100.00
53514;BME280;39768;54.148;12.174;2022-10-16T03:06:27;100900.31;;;16.07;100.00
53514;BME280;39768;54.148;12.174;2022-10-16T03:10:28;100894.94;;;16.07;100.00
53514;BME280;39768;54.148;12.174;2022-10-16T03:14:30;100908.34;;;16.07;100.00
53514;BME280;39768;54.148;12.174;2022-10-16T03:18:31;100911.25;;;16.01;100.00
53514;BME280;39768;54.148;12.174;2022-10-16T03:22:32;100906.34;;;16.13;100.00
53514;BME280;39768;54.148;12.174;2022-10-16T03:26:34;100919.50;;;15.93;100.00
53514;BME280;39768;54.148;12.174;2022-10-16T03:30:35;100915.09;;;15.92;100.00
53514;BME280;39768;54.148;12.174;2022-10-16T03:34:37;100923.81;;;15.99;100.00
53514;BME280;39768;54.148;12.174;2022-10-16T03:38:38;100931.47;;;15.83;100.00
53514;BME280;39768;54.148;12.174;2022-10-16T03:42:39;100924.44;;;15.79;100.00
53514;BME280;39768;54.148;12.174;2022-10-16T03:46:41;100926.34;;;15.75;100.00
53514;BME280;39768;54.148;12.174;2022-10-16T03:50:42;100935.53;;;15.95;100.00
53514;BME280;39768;54.148;12.174;2022-10-16T03:54:43;100933.88;;;15.91;100.00
53514;BME280;39768;54.148;12.174;2022-10-16T03:58:45;100928.81;;;15.81;100.00
53514;BME280;39768;54.148;12.174;2022-10-16T04:02:46;100920.16;;;15.44;100.00
53514;BME280;39768;54.148;12.174;2022-10-16T04:06:48;100928.06;;;15.48;100.00
53514;BME280;39768;54.148;12.174;2022-10-16T04:10:49;100934.59;;;15.69;100.00
53514;BME280;39768;54.148;12.174;2022-10-16T04:14:51;100928.94;;;15.49;100.00
53514;BME280;39768;54.148;12.174;2022-10-16T04:18:52;100940.47;;;15.51;100.00
53514;BME280;39768;54.148;12.174;2022-10-16T04:22:53;100945.59;;;15.59;100.00
53514;BME280;39768;54.148;12.174;2022-10-16T04:26:55;100953.00;;;15.49;100.00
53514;BME280;39768;54.148;12.174;2022-10-16T04:30:56;100957.44;;;15.50;100.00
53514;BME280;39768;54.148;12.174;2022-10-16T04:34:57;100961.31;;;15.10;100.00
53514;BME280;39768;54.148;12.174;2022-10-16T04:38:59;100950.56;;;15.12;100.00
53514;BME280;39768;54.148;12.174;2022-10-16T04:43:00;100955.41;;;15.29;100.00
53514;BME280;39768;54.148;12.174;2022-10-16T04:47:02;100966.22;;;15.26;100.00
53514;BME280;39768;54.148;12.174;2022-10-16T04:51:03;100959.31;;;15.17;100.00
53514;BME280;39768;54.148;12.174;2022-10-16T04:55:04;100954.38;;;15.33;100.00
53514;BME280;39768;54.148;12.174;2022-10-16T04:59:06;100961.88;;;15.22;100.00
53514;BME280;39768;54.148;12.174;2022-10-16T05:03:08;100964.75;;;15.14;100.00
53514;BME280;39768;54.148;12.174;2022-10-16T05:07:10;100964.94;;;14.43;100.00
53514;BME280;39768;54.148;12.174;2022-10-16T05:11:11;100964.41;;;14.95;100.00
53514;BME280;39768;54.148;12.174;2022-10-16T05:15:13;100972.44;;;14.63;100.00
53514;BME280;39768;54.148;12.174;2022-10-16T05:19:14;100987.06;;;14.82;100.00
53514;BME280;39768;54.148;12.174;2022-10-16T05:23:28;100980.94;;;14.77;100.00
53514;BME280;39768;54.148;12.174;2022-10-16T05:27:29;100987.28;;;14.73;100.00
53514;BME280;39768;54.148;12.174;2022-10-16T05:31:30;100997.88;;;14.77;100.00
53514;BME280;39768;54.148;12.174;2022-10-16T05:35:32;101001.97;;;14.57;100.00
53514;BME280;39768;54.148;12.174;2022-10-16T05:39:34;101011.22;;;14.43;100.00
53514;BME280;39768;54.148;12.174;2022-10-16T05:43:38;101010.50;;;14.71;100.00
53514;BME280;39768;54.148;12.174;2022-10-16T05:47:39;101010.53;;;14.69;100.00
53514;BME280;39768;54.148;12.174;2022-10-16T05:51:41;101008.03;;;14.97;100.00
53514;BME280;39768;54.148;12.174;2022-10-16T05:55:42;101017.81;;;14.64;100.00
53514;BME280;39768;54.148;12.174;2022-10-16T05:59:44;101025.03;;;14.95;100.00
53514;BME280;39768;54.148;12.174;2022-10-16T06:03:45;101033.84;;;14.64;100.00
53514;BME280;39768;54.148;12.174;2022-10-16T06:07:47;101035.13;;;14.84;100.00
53514;BME280;39768;54.148;12.174;2022-10-16T06:11:49;101044.31;;;14.72;100.00
53514;BME280;39768;54.148;12.174;2022-10-16T06:15:51;101054.09;;;14.73;100.00
53514;BME280;39768;54.148;12.174;2022-10-16T06:19:52;101059.69;;;14.64;100.00
53514;BME280;39768;54.148;12.174;2022-10-16T06:23:54;101076.88;;;14.88;100.00
53514;BME280;39768;54.148;12.174;2022-10-16T06:27:56;101075.63;;;14.68;100.00
53514;BME280;39768;54.148;12.174;2022-10-16T06:31:57;101090.31;;;14.85;100.00
53514;BME280;39768;54.148;12.174;2022-10-16T06:36:02;101091.47;;;14.74;100.00
53514;BME280;39768;54.148;12.174;2022-10-16T06:40:04;101089.66;;;14.76;100.00
53514;BME280;39768;54.148;12.174;2022-10-16T06:44:06;101086.09;;;14.76;100.00
53514;BME280;39768;54.148;12.174;2022-10-16T06:48:08;101088.97;;;15.02;100.00
53514;BME280;39768;54.148;12.174;2022-10-16T06:52:09;101089.00;;;15.01;100.00
53514;BME280;39768;54.148;12.174;2022-10-16T06:56:14;101089.88;;;15.01;100.00
53514;BME280;39768;54.148;12.174;2022-10-16T07:00:16;101101.97;;;15.16;100.00
53514;BME280;39768;54.148;12.174;2022-10-16T07:04:18;101113.19;;;15.29;100.00
53514;BME280;39768;54.148;12.174;2022-10-16T07:08:19;101110.47;;;15.32;100.00
53514;BME280;39768;54.148;12.174;2022-10-16T07:12:21;101113.19;;;15.29;100.00
53514;BME280;39768;54.148;12.174;2022-10-16T07:16:24;101114.69;;;15.40;100.00
53514;BME280;39768;54.148;12.174;2022-10-16T07:20:26;101125.66;;;15.30;100.00
53514;BME280;39768;54.148;12.174;2022-10-16T07:24:28;101128.41;;;15.28;100.00
53514;BME280;39768;54.148;12.174;2022-10-16T07:28:29;101137.19;;;15.66;100.00
53514;BME280;39768;54.148;12.174;2022-10-16T07:32:31;101143.38;;;15.99;100.00
53514;BME280;39768;54.148;12.174;2022-10-16T07:36:32;101133.50;;;16.30;100.00
53514;BME280;39768;54.148;12.174;2022-10-16T07:40:34;101144.94;;;16.35;100.00
53514;BME280;39768;54.148;12.174;2022-10-16T07:44:35;101141.03;;;16.75;100.00
53514;BME280;39768;54.148;12.174;2022-10-16T07:48:37;101147.72;;;16.60;100.00
53514;BME280;39768;54.148;12.174;2022-10-16T07:52:38;101144.44;;;16.50;100.00
53514;BME280;39768;54.148;12.174;2022-10-16T07:56:40;101145.81;;;17.18;100.00
53514;BME280;39768;54.148;12.174;2022-10-16T08:00:44;101145.47;;;17.52;100.00
53514;BME280;39768;54.148;12.174;2022-10-16T08:04:46;101144.69;;;17.50;100.00
53514;BME280;39768;54.148;12.174;2022-10-16T08:08:48;101138.84;;;17.64;100.00
53514;BME280;39768;54.148;12.174;2022-10-16T08:12:50;101149.03;;;17.52;100.00
53514;BME280;39768;54.148;12.174;2022-10-16T08:16:52;101156.38;;;17.74;100.00
53514;BME280;39768;54.148;12.174;2022-10-16T08:20:55;101151.03;;;18.20;100.00
53514;BME280;39768;54.148;12.174;2022-10-16T08:24:56;101152.53;;;18.27;100.00
53514;BME280;39768;54.148;12.174;2022-10-16T08:28:58;101151.72;;;18.02;100.00
53514;BME280;39768;54.148;12.174;2022-10-16T08:32:59;101168.25;;;18.15;100.00
53514;BME280;39768;54.148;12.174;2022-10-16T08:37:01;101166.31;;;18.18;100.00
53514;BME280;39768;54.148;12.174;2022-10-16T08:45:15;101161.69;;;17.98;100.00
53514;BME280;39768;54.148;12.174;2022-10-16T08:49:21;101168.19;;;17.68;100.00
53514;BME280;39768;54.148;12.174;2022-10-16T08:53:27;101177.75;;;17.77;100.00
53514;BME280;39768;54.148;12.174;2022-10-16T08:57:31;101185.13;;;17.95;100.00
53514;BME280;39768;54.148;12.174;2022-10-16T09:01:37;101183.03;;;18.03;100.00
53514;BME280;39768;54.148;12.174;2022-10-16T09:05:49;101182.25;;;18.00;100.00
53514;BME280;39768;54.148;12.174;2022-10-16T09:09:56;101176.00;;;17.76;100.00
53514;BME280;39768;54.148;12.174;2022-10-16T09:14:04;101182.91;;;17.56;100.00
53514;BME280;39768;54.148;12.174;2022-10-16T09:22:18;101194.28;;;17.89;100.00
53514;BME280;39768;54.148;12.174;2022-10-16T09:26:23;101179.22;;;17.85;100.00
53514;BME280;39768;54.148;12.174;2022-10-16T09:30:29;101178.88;;;17.70;100.00
53514;BME280;39768;54.148;12.174;2022-10-16T09:34:32;101184.13;;;17.97;100.00
53514;BME280;39768;54.148;12.174;2022-10-16T09:38:35;101187.50;;;17.79;100.00
53514;BME280;39768;54.148;12.174;2022-10-16T09:42:37;101186.59;;;17.80;100.00
53514;BME280;39768;54.148;12.174;2022-10-16T09:46:39;101177.44;;;18.09;100.00
53514;BME280;39768;54.148;12.174;2022-10-16T09:50:41;101182.50;;;18.63;100.00
53514;BME280;39768;54.148;12.174;2022-10-16T09:55:16;101181.31;;;18.92;100.00
53514;BME280;39768;54.148;12.174;2022-10-16T09:59:14;101191.81;;;19.20;100.00
53514;BME280;39768;54.148;12.174;2022-10-16T10:07:38;101195.19;;;19.46;99.79
53514;BME280;39768;54.148;12.174;2022-10-16T10:12:01;101194.97;;;19.72;98.52
53514;BME280;39768;54.148;12.174;2022-10-16T10:16:09;101202.03;;;19.75;98.11
53514;BME280;39768;54.148;12.174;2022-10-16T10:20:24;101208.31;;;19.55;97.79
53514;BME280;39768;54.148;12.174;2022-10-16T10:24:26;101209.66;;;19.23;100.00
53514;BME280;39768;54.148;12.174;2022-10-16T10:32:35;101218.88;;;19.37;100.00
53514;BME280;39768;54.148;12.174;2022-10-16T10:36:41;101215.31;;;19.79;100.00
53514;BME280;39768;54.148;12.174;2022-10-16T10:40:45;101224.69;;;19.70;97.89
53514;BME280;39768;54.148;12.174;2022-10-16T10:53:39;101206.41;;;19.77;94.20
53514;BME280;39768;54.148;12.174;2022-10-16T11:01:52;101222.91;;;19.90;92.68
53514;BME280;39768;54.148;12.174;2022-10-16T11:05:59;101225.75;;;20.26;91.44
53514;BME280;39768;54.148;12.174;2022-10-16T11:10:07;101227.94;;;20.18;92.33
53514;BME280;39768;54.148;12.174;2022-10-16T11:18:25;101233.09;;;20.22;88.98
53514;BME280;39768;54.148;12.174;2022-10-16T11:22:38;101233.91;;;20.24;90.40
53514;BME280;39768;54.148;12.174;2022-10-16T11:26:42;101232.69;;;20.31;90.12
53514;BME280;39768;54.148;12.174;2022-10-16T11:30:47;101237.88;;;20.36;87.51
53514;BME280;39768;54.148;12.174;2022-10-16T11:34:52;101230.31;;;20.63;87.96
53514;BME280;39768;54.148;12.174;2022-10-16T11:39:11;101236.38;;;20.49;83.31
53514;BME280;39768;54.148;12.174;2022-10-16T11:43:28;101244.03;;;20.58;83.95
53514;BME280;39768;54.148;12.174;2022-10-16T11:47:48;101250.69;;;20.89;82.04
53514;BME280;39768;54.148;12.174;2022-10-16T11:52:23;101237.25;;;20.68;80.73
53514;BME280;39768;54.148;12.174;2022-10-16T11:56:22;101234.84;;;20.81;83.12
53514;BME280;39768;54.148;12.174;2022-10-16T12:00:24;101243.47;;;20.89;83.02
53514;BME280;39768;54.148;12.174;2022-10-16T12:04:31;101237.81;;;20.94;83.45
53514;BME280;39768;54.148;12.174;2022-10-16T12:08:35;101245.22;;;20.71;82.14
53514;BME280;39768;54.148;12.174;2022-10-16T12:12:38;101242.91;;;21.00;78.69
53514;BME280;39768;54.148;12.174;2022-10-16T12:20:54;101241.69;;;21.07;70.43
53514;BME280;39768;54.148;12.174;2022-10-16T12:25:00;101246.50;;;21.00;71.46
53514;BME280;39768;54.148;12.174;2022-10-16T12:33:22;101262.91;;;21.15;71.58
53514;BME280;39768;54.148;12.174;2022-10-16T12:37:32;101278.31;;;20.94;72.34
53514;BME280;39768;54.148;12.174;2022-10-16T12:41:35;101285.44;;;21.13;72.25
53514;BME280;39768;54.148;12.174;2022-10-16T12:45:38;101305.31;;;20.75;72.64
53514;BME280;39768;54.148;12.174;2022-10-16T12:49:47;101318.25;;;20.67;70.40
53514;BME280;39768;54.148;12.174;2022-10-16T12:54:11;101316.34;;;20.50;73.41
53514;BME280;39768;54.148;12.174;2022-10-16T12:58:33;101320.53;;;20.37;70.23
53514;BME280;39768;54.148;12.174;2022-10-16T13:06:59;101351.91;;;20.39;68.82
53514;BME280;39768;54.148;12.174;2022-10-16T13:23:32;101361.00;;;20.37;65.67
53514;BME280;39768;54.148;12.174;2022-10-16T13:27:40;101358.78;;;20.47;65.25
53514;BME280;39768;54.148;12.174;2022-10-16T13:31:44;101358.16;;;20.40;64.27
53514;BME280;39768;54.148;12.174;2022-10-16T13:35:47;101362.56;;;20.42;67.51
53514;BME280;39768;54.148;12.174;2022-10-16T13:39:49;101367.19;;;20.39;62.53
53514;BME280;39768;54.148;12.174;2022-10-16T13:43:52;101376.34;;;20.75;63.11
53514;BME280;39768;54.148;12.174;2022-10-16T13:48:04;101375.03;;;20.45;65.79
53514;BME280;39768;54.148;12.174;2022-10-16T13:52:15;101378.13;;;20.36;65.97
53514;BME280;39768;54.148;12.174;2022-10-16T13:56:19;101389.41;;;20.24;67.52
53514;BME280;39768;54.148;12.174;2022-10-16T14:00:21;101399.44;;;20.20;68.72
53514;BME280;39768;54.148;12.174;2022-10-16T14:04:24;101401.97;;;20.65;64.47
53514;BME280;39768;54.148;12.174;2022-10-16T14:08:27;101403.97;;;20.62;63.88
53514;BME280;39768;54.148;12.174;2022-10-16T14:12:29;101411.34;;;20.77;65.21
53514;BME280;39768;54.148;12.174;2022-10-16T14:16:31;101425.19;;;20.49;64.38
53514;BME280;39768;54.148;12.174;2022-10-16T14:20:33;101427.88;;;20.49;65.92
53514;BME280;39768;54.148;12.174;2022-10-16T14:24:35;101434.03;;;20.11;68.32
53514;BME280;39768;54.148;12.174;2022-10-16T14:28:37;101437.69;;;20.30;66.62
53514;BME280;39768;54.148;12.174;2022-10-16T14:32:40;101438.81;;;20.24;65.13
53514;BME280;39768;54.148;12.174;2022-10-16T14:36:41;101451.69;;;20.39;64.30
53514;BME280;39768;54.148;12.174;2022-10-16T14:40:45;101452.78;;;20.34;63.87
53514;BME280;39768;54.148;12.174;2022-10-16T14:44:48;101453.13;;;20.26;60.95
53514;BME280;39768;54.148;12.174;2022-10-16T14:48:53;101457.28;;;20.13;62.47
53514;BME280;39768;54.148;12.174;2022-10-16T14:52:57;101458.59;;;19.81;64.68
53514;BME280;39768;54.148;12.174;2022-10-16T14:56:59;101469.16;;;19.87;65.25
53514;BME280;39768;54.148;12.174;2022-10-16T15:01:01;101466.91;;;19.75;68.21
53514;BME280;39768;54.148;12.174;2022-10-16T15:05:21;101477.06;;;19.45;70.37
53514;BME280;39768;54.148;12.174;2022-10-16T15:09:27;101488.59;;;19.49;72.29
53514;BME280;39768;54.148;12.174;2022-10-16T15:13:28;101494.34;;;19.63;74.18
53514;BME280;39768;54.148;12.174;2022-10-16T15:17:29;101501.53;;;19.86;74.22
53514;BME280;39768;54.148;12.174;2022-10-16T15:21:32;101507.94;;;19.60;76.17
53514;BME280;39768;54.148;12.174;2022-10-16T15:25:35;101513.19;;;19.40;76.67
53514;BME280;39768;54.148;12.174;2022-10-16T15:29:37;101514.75;;;19.22;76.51
53514;BME280;39768;54.148;12.174;2022-10-16T15:33:39;101522.22;;;19.38;76.32
53514;BME280;39768;54.148;12.174;2022-10-16T15:37:40;101532.00;;;19.16;78.01
53514;BME280;39768;54.148;12.174;2022-10-16T15:41:42;101526.94;;;19.32;77.80
53514;BME280;39768;54.148;12.174;2022-10-16T15:45:44;101538.63;;;19.08;79.43
53514;BME280;39768;54.148;12.174;2022-10-16T15:49:45;101546.63;;;19.09;81.21
53514;BME280;39768;54.148;12.174;2022-10-16T15:53:47;101554.13;;;18.75;83.37
53514;BME280;39768;54.148;12.174;2022-10-16T15:57:48;101560.63;;;18.69;84.78
53514;BME280;39768;54.148;12.174;2022-10-16T16:01:50;101576.31;;;18.55;86.40
53514;BME280;39768;54.148;12.174;2022-10-16T16:05:52;101588.16;;;18.49;85.49
53514;BME280;39768;54.148;12.174;2022-10-16T16:09:53;101595.56;;;18.41;86.35
53514;BME280;39768;54.148;12.174;2022-10-16T16:13:54;101591.50;;;18.28;88.07
53514;BME280;39768;54.148;12.174;2022-10-16T16:17:56;101597.81;;;18.27;89.05
53514;BME280;39768;54.148;12.174;2022-10-16T16:21:57;101600.28;;;18.07;90.82
53514;BME280;39768;54.148;12.174;2022-10-16T16:26:12;101616.94;;;17.88;93.20
53514;BME280;39768;54.148;12.174;2022-10-16T16:30:14;101617.69;;;17.93;93.58
53514;BME280;39768;54.148;12.174;2022-10-16T16:34:20;101625.75;;;17.93;93.74
53514;BME280;39768;54.148;12.174;2022-10-16T16:38:21;101635.28;;;17.74;94.10
53514;BME280;39768;54.148;12.174;2022-10-16T16:42:23;101641.28;;;17.82;94.10
53514;BME280;39768;54.148;12.174;2022-10-16T16:46:25;101642.56;;;17.69;95.87
53514;BME280;39768;54.148;12.174;2022-10-16T16:50:26;101649.88;;;17.66;96.07
53514;BME280;39768;54.148;12.174;2022-10-16T16:54:28;101668.72;;;17.62;95.80
53514;BME280;39768;54.148;12.174;2022-10-16T16:58:29;101674.63;;;17.43;96.99
53514;BME280;39768;54.148;12.174;2022-10-16T17:02:31;101685.88;;;17.23;98.28
53514;BME280;39768;54.148;12.174;2022-10-16T17:06:32;101679.94;;;17.10;99.60
53514;BME280;39768;54.148;12.174;2022-10-16T17:10:34;101690.72;;;17.09;100.00
53514;BME280;39768;54.148;12.174;2022-10-16T17:14:42;101694.38;;;17.06;99.90
53514;BME280;39768;54.148;12.174;2022-10-16T17:18:44;101703.56;;;16.96;100.00
53514;BME280;39768;54.148;12.174;2022-10-16T17:22:45;101715.09;;;17.00;100.00
53514;BME280;39768;54.148;12.174;2022-10-16T17:26:47;101708.66;;;17.07;99.77
53514;BME280;39768;54.148;12.174;2022-10-16T17:30:49;101725.94;;;16.95;100.00
53514;BME280;39768;54.148;12.174;2022-10-16T17:34:51;101730.75;;;16.81;100.00
53514;BME280;39768;54.148;12.174;2022-10-16T17:38:52;101742.16;;;16.90;100.00
53514;BME280;39768;54.148;12.174;2022-10-16T17:42:53;101752.34;;;16.76;100.00
53514;BME280;39768;54.148;12.174;2022-10-16T17:46:55;101752.53;;;16.67;100.00
53514;BME280;39768;54.148;12.174;2022-10-16T17:50:56;101762.09;;;16.37;100.00
53514;BME280;39768;54.148;12.174;2022-10-16T17:54:58;101770.69;;;16.11;100.00
53514;BME280;39768;54.148;12.174;2022-10-16T17:59:00;101774.41;;;16.03;100.00
53514;BME280;39768;54.148;12.174;2022-10-16T18:03:02;101779.25;;;15.85;100.00
53514;BME280;39768;54.148;12.174;2022-10-16T18:07:03;101773.88;;;15.85;100.00
53514;BME280;39768;54.148;12.174;2022-10-16T18:11:05;101782.94;;;15.77;100.00
53514;BME280;39768;54.148;12.174;2022-10-16T18:15:06;101785.81;;;15.68;100.00
53514;BME280;39768;54.148;12.174;2022-10-16T18:19:08;101793.13;;;15.58;100.00
53514;BME280;39768;54.148;12.174;2022-10-16T18:23:10;101793.50;;;15.34;100.00
53514;BME280;39768;54.148;12.174;2022-10-16T18:27:12;101793.44;;;15.37;100.00
53514;BME280;39768;54.148;12.174;2022-10-16T18:31:14;101806.94;;;15.29;100.00
53514;BME280;39768;54.148;12.174;2022-10-16T18:35:16;101816.81;;;15.26;100.00
53514;BME280;39768;54.148;12.174;2022-10-16T18:39:17;101831.97;;;15.27;100.00
53514;BME280;39768;54.148;12.174;2022-10-16T18:43:23;101846.09;;;15.35;100.00
53514;BME280;39768;54.148;12.174;2022-10-16T18:47:25;101852.38;;;15.32;100.00
53514;BME280;39768;54.148;12.174;2022-10-16T18:51:30;101861.31;;;15.31;100.00
53514;BME280;39768;54.148;12.174;2022-10-16T18:55:31;101871.13;;;15.31;100.00
53514;BME280;39768;54.148;12.174;2022-10-16T18:59:34;101882.84;;;15.24;100.00
53514;BME280;39768;54.148;12.174;2022-10-16T19:03:35;101879.31;;;15.20;100.00
53514;BME280;39768;54.148;12.174;2022-10-16T19:07:37;101884.72;;;15.15;100.00
53514;BME280;39768;54.148;12.174;2022-10-16T19:11:39;101889.34;;;15.04;100.00
53514;BME280;39768;54.148;12.174;2022-10-16T19:15:42;101885.13;;;14.87;100.00
53514;BME280;39768;54.148;12.174;2022-10-16T19:19:58;101897.88;;;14.68;100.00
53514;BME280;39768;54.148;12.174;2022-10-16T19:24:00;101890.16;;;14.39;100.00
53514;BME280;39768;54.148;12.174;2022-10-16T19:28:03;101896.13;;;14.65;100.00
53514;BME280;39768;54.148;12.174;2022-10-16T19:32:07;101903.31;;;14.57;100.00
53514;BME280;39768;54.148;12.174;2022-10-16T19:40:13;101923.88;;;14.52;100.00
53514;BME280;39768;54.148;12.174;2022-10-16T19:44:15;101927.38;;;14.57;100.00
53514;BME280;39768;54.148;12.174;2022-10-16T19:48:16;101942.66;;;14.46;100.00
53514;BME280;39768;54.148;12.174;2022-10-16T19:52:18;101947.09;;;14.47;100.00
53514;BME280;39768;54.148;12.174;2022-10-16T19:56:23;101941.72;;;14.49;100.00
53514;BME280;39768;54.148;12.174;2022-10-16T20:00:24;101940.88;;;14.43;100.00
53514;BME280;39768;54.148;12.174;2022-10-16T20:04:26;101945.31;;;14.44;100.00
53514;BME280;39768;54.148;12.174;2022-10-16T20:08:27;101941.09;;;14.21;100.00
53514;BME280;39768;54.148;12.174;2022-10-16T20:12:29;101951.84;;;14.13;100.00
53514;BME280;39768;54.148;12.174;2022-10-16T20:16:30;101968.94;;;13.94;100.00
53514;BME280;39768;54.148;12.174;2022-10-16T20:20:35;101968.88;;;13.97;100.00
53514;BME280;39768;54.148;12.174;2022-10-16T20:24:37;101970.06;;;13.62;100.00
53514;BME280;39768;54.148;12.174;2022-10-16T20:28:39;101980.03;;;13.30;100.00
53514;BME280;39768;54.148;12.174;2022-10-16T20:32:41;101979.94;;;13.42;100.00
53514;BME280;39768;54.148;12.174;2022-10-16T20:36:42;101988.91;;;13.30;100.00
53514;BME280;39768;54.148;12.174;2022-10-16T20:40:46;101999.56;;;13.32;100.00
53514;BME280;39768;54.148;12.174;2022-10-16T20:44:47;102007.56;;;13.32;100.00
53514;BME280;39768;54.148;12.174;2022-10-16T20:48:52;102004.97;;;13.20;100.00
53514;BME280;39768;54.148;12.174;2022-10-16T20:52:54;102007.63;;;13.09;100.00
53514;BME280;39768;54.148;12.174;2022-10-16T20:56:55;102010.25;;;13.26;100.00
53514;BME280;39768;54.148;12.174;2022-10-16T21:01:03;102001.38;;;13.21;100.00
53514;BME280;39768;54.148;12.174;2022-10-16T21:05:05;101997.88;;;13.19;100.00
53514;BME280;39768;54.148;12.174;2022-10-16T21:09:06;102009.41;;;13.08;100.00
53514;BME280;39768;54.148;12.174;2022-10-16T21:13:08;102014.78;;;13.04;100.00
53514;BME280;39768;54.148;12.174;2022-10-16T21:17:09;102015.66;;;12.95;100.00
53514;BME280;39768;54.148;12.174;2022-10-16T21:21:18;102015.66;;;13.00;100.00
53514;BME280;39768;54.148;12.174;2022-10-16T21:25:19;102008.50;;;13.06;100.00
53514;BME280;39768;54.148;12.174;2022-10-16T21:29:21;102009.53;;;12.66;100.00
53514;BME280;39768;54.148;12.174;2022-10-16T21:33:23;102003.34;;;12.49;100.00
53514;BME280;39768;54.148;12.174;2022-10-16T21:37:24;102017.56;;;11.96;100.00
53514;BME280;39768;54.148;12.174;2022-10-16T21:41:26;102021.03;;;11.64;100.00
53514;BME280;39768;54.148;12.174;2022-10-16T21:45:28;102028.13;;;11.56;100.00
53514;BME280;39768;54.148;12.174;2022-10-16T21:49:29;102032.63;;;11.82;100.00
53514;BME280;39768;54.148;12.174;2022-10-16T21:53:30;102047.75;;;11.99;100.00
53514;BME280;39768;54.148;12.174;2022-10-16T21:57:32;102039.75;;;11.99;100.00
53514;BME280;39768;54.148;12.174;2022-10-16T22:01:34;102038.88;;;12.16;100.00
53514;BME280;39768;54.148;12.174;2022-10-16T22:05:35;102030.75;;;11.59;100.00
53514;BME280;39768;54.148;12.174;2022-10-16T22:09:37;102041.38;;;11.50;100.00
53514;BME280;39768;54.148;12.174;2022-10-16T22:13:38;102047.53;;;11.37;100.00
53514;BME280;39768;54.148;12.174;2022-10-16T22:17:40;102044.94;;;11.55;100.00